VTBS/BKK METAR and TAF weather

Enter ICAO airport designator
Station Type Date Time Source
VTBS METAR 2024/06/14 02:00 UTC NOAA

VTBS 140200Z 24008KT 210V270 9999 FEW020 33/23 Q1008 NOSIG


Station Type Date Time Source
VTBS Decoded METAR 2024/06/14 02:00 UTC NOAA

Chon Buri, Thailand (VTBS) 13-22N 100-59E 2M
Jun 13, 2024 - 10:00 PM EDT / 2024.06.14 0200 UTC
Wind: from the WSW (240 degrees) at 9 MPH (8 KT) (direction variable):0
Visibility: greater than 7 mile(s):0
Sky conditions: mostly clear
Temperature: 91 F (33 C)
Heat index: 99.1 F (37.3 C):1
Dew Point: 73 F (23 C)
Relative Humidity: 55%
Pressure (altimeter): 29.77 in. Hg (1008 hPa)
ob: VTBS 140200Z 24008KT 210V270 9999 FEW020 33/23 Q1008 NOSIG
cycle: 2

Station Type Date Time Source
VTBS TAF 2024/06/13 18:00 UTC NOAA